createdAt,value
2022-09-10T00:00:43.592Z,1.00
2022-09-10T00:03:11.414Z,1.00
2022-09-10T00:05:43.805Z,1.30
2022-09-10T00:08:11.105Z,1.00
2022-09-10T00:10:42.833Z,0.98
2022-09-10T00:13:10.517Z,0.90
2022-09-10T00:15:46.970Z,0.90
2022-09-10T00:18:15.673Z,0.90
2022-09-10T00:20:43.597Z,1.02
2022-09-10T00:23:10.406Z,1.00
2022-09-10T00:25:37.141Z,0.95
2022-09-10T00:28:03.688Z,1.00
2022-09-10T00:30:30.350Z,0.90
2022-09-10T00:32:56.929Z,1.00
2022-09-10T00:35:23.965Z,1.00
2022-09-10T00:37:50.477Z,1.05
2022-09-10T00:40:17.197Z,0.90
2022-09-10T00:42:43.742Z,1.00
2022-09-10T00:45:18.798Z,0.90
2022-09-10T00:47:47.848Z,1.00
2022-09-10T00:50:37.825Z,1.40
2022-09-10T00:53:11.256Z,1.00
2022-09-10T00:55:42.573Z,0.90
2022-09-10T00:58:12.031Z,0.90
2022-09-10T01:00:41.151Z,0.93
2022-09-10T01:03:11.449Z,0.90
2022-09-10T01:05:42.489Z,0.90
2022-09-10T01:08:14.034Z,0.98
2022-09-10T01:11:06.794Z,0.80
2022-09-10T01:13:55.210Z,0.90
2022-09-10T01:16:34.794Z,0.90
2022-09-10T01:19:24.514Z,1.00
2022-09-10T01:21:51.976Z,1.00
2022-09-10T01:24:47.147Z,0.98
2022-09-10T01:27:45.955Z,0.90
2022-09-10T01:30:20.420Z,0.85
2022-09-10T01:32:59.425Z,0.98
2022-09-10T01:35:44.816Z,0.90
2022-09-10T01:38:23.547Z,1.10
2022-09-10T01:40:50.530Z,1.40
2022-09-10T01:43:17.039Z,1.05
2022-09-10T01:48:54.811Z,1.05
2022-09-10T01:51:31.911Z,1.30
2022-09-10T01:54:14.386Z,1.50
2022-09-10T01:56:55.451Z,1.92
2022-09-10T01:59:47.799Z,1.45
2022-09-10T02:02:20.812Z,1.40
2022-09-10T02:04:50.536Z,1.13
2022-09-10T02:07:21.342Z,1.40
2022-09-10T02:09:50.803Z,1.10
2022-09-10T02:12:19.771Z,1.52
2022-09-10T02:14:51.855Z,1.05
2022-09-10T02:17:19.340Z,1.20
2022-09-10T02:19:47.643Z,1.10
2022-09-10T02:22:15.540Z,1.60
2022-09-10T02:24:44.353Z,1.05
2022-09-10T02:27:12.060Z,1.02
2022-09-10T02:29:39.936Z,1.13
2022-09-10T02:32:08.414Z,1.08
2022-09-10T02:34:36.272Z,1.08
2022-09-10T02:37:03.764Z,1.15
2022-09-10T02:39:31.020Z,1.10
2022-09-10T02:41:58.808Z,0.98
2022-09-10T02:44:26.918Z,1.00
2022-09-10T02:46:53.412Z,1.30
2022-09-10T02:51:50.562Z,1.00
2022-09-10T02:54:19.990Z,1.08
2022-09-10T02:56:49.974Z,1.20
2022-09-10T02:59:18.053Z,1.02
2022-09-10T03:01:44.799Z,1.10
2022-09-10T03:04:11.392Z,1.30
2022-09-10T03:06:38.239Z,1.17
2022-09-10T03:09:04.846Z,1.60
2022-09-10T03:11:31.743Z,1.30
2022-09-10T03:13:58.594Z,1.13
2022-09-10T03:16:25.221Z,1.20
2022-09-10T03:18:52.418Z,1.15
2022-09-10T03:21:21.646Z,1.10
2022-09-10T03:23:50.785Z,1.10
2022-09-10T03:26:19.033Z,1.50
2022-09-10T03:28:46.685Z,1.00
2022-09-10T03:31:14.058Z,1.08
2022-09-10T03:33:41.373Z,1.10
2022-09-10T03:36:09.708Z,1.00
2022-09-10T03:38:36.321Z,1.27
2022-09-10T03:41:03.196Z,1.02
2022-09-10T03:43:30.226Z,1.10
2022-09-10T03:45:57.007Z,1.20
2022-09-10T03:48:23.998Z,1.00
2022-09-10T03:50:53.281Z,1.20
2022-09-10T03:53:20.186Z,1.15
2022-09-10T03:55:48.022Z,1.20
2022-09-10T03:58:16.139Z,1.23
2022-09-10T04:00:43.072Z,1.50
2022-09-10T04:03:11.151Z,1.10
2022-09-10T04:05:44.074Z,1.10
2022-09-10T04:08:12.265Z,1.30
2022-09-10T04:10:44.117Z,1.40
2022-09-10T04:13:11.469Z,1.38
2022-09-10T04:15:38.201Z,1.08
2022-09-10T04:18:06.226Z,1.20
2022-09-10T04:20:33.985Z,1.00
2022-09-10T04:23:00.614Z,1.30
2022-09-10T04:25:27.799Z,1.40
2022-09-10T04:27:54.626Z,1.25
2022-09-10T04:30:21.103Z,1.00
2022-09-10T04:35:17.197Z,1.20
2022-09-10T04:37:43.806Z,1.05
2022-09-10T04:40:10.765Z,1.20
2022-09-10T04:45:13.606Z,1.40
2022-09-10T04:50:07.344Z,1.10
2022-09-10T04:52:33.899Z,1.10
2022-09-10T04:55:00.331Z,1.58
2022-09-10T04:59:54.043Z,1.20
2022-09-10T05:02:20.724Z,1.20
2022-09-10T05:04:47.235Z,1.10
2022-09-10T05:09:40.132Z,1.40
2022-09-10T05:14:33.966Z,1.75
2022-09-10T05:17:01.312Z,1.58
2022-09-10T05:19:27.720Z,1.30
2022-09-10T05:21:54.203Z,1.33
2022-09-10T05:26:47.616Z,1.47
2022-09-10T05:31:41.048Z,1.30
2022-09-10T05:34:08.449Z,1.40
2022-09-10T05:36:35.590Z,1.75
2022-09-10T05:39:03.786Z,2.10
2022-09-10T05:41:31.209Z,1.55
2022-09-10T05:43:58.649Z,1.40
2022-09-10T05:46:25.437Z,1.45
2022-09-10T05:48:54.256Z,1.23
2022-09-10T05:51:21.838Z,1.35
2022-09-10T05:53:48.369Z,1.60
2022-09-10T05:58:41.360Z,1.20
2022-09-10T06:01:07.884Z,1.38
2022-09-10T06:06:00.986Z,1.10
2022-09-10T06:11:05.858Z,1.50
2022-09-10T06:13:33.936Z,1.63
2022-09-10T06:16:00.998Z,1.20
2022-09-10T06:18:28.077Z,1.52
2022-09-10T06:21:06.162Z,1.27
2022-09-10T06:23:33.082Z,1.30
2022-09-10T06:26:04.396Z,1.10
2022-09-10T06:28:33.097Z,1.60
2022-09-10T06:31:00.251Z,2.70
2022-09-10T06:33:26.941Z,1.13
2022-09-10T06:35:57.762Z,1.20
2022-09-10T06:38:25.212Z,1.30
2022-09-10T06:40:56.050Z,1.45
2022-09-10T06:43:23.641Z,1.65
2022-09-10T06:45:52.297Z,1.10
2022-09-10T06:48:47.641Z,1.30
2022-09-10T06:51:14.181Z,1.55
2022-09-10T06:53:42.902Z,1.45
2022-09-10T06:56:13.070Z,1.40
2022-09-10T06:58:39.935Z,1.40
2022-09-10T07:01:25.815Z,1.63
2022-09-10T07:03:57.044Z,1.40
2022-09-10T07:06:24.730Z,1.70
2022-09-10T07:08:58.232Z,1.40
2022-09-10T07:11:26.838Z,1.50
2022-09-10T07:13:53.781Z,1.20
2022-09-10T07:16:21.975Z,1.38
2022-09-10T07:18:50.383Z,1.30
2022-09-10T07:21:18.421Z,1.30
2022-09-10T07:23:46.498Z,1.20
2022-09-10T07:26:15.735Z,1.42
2022-09-10T07:28:42.892Z,1.73
2022-09-10T07:31:23.559Z,1.10
2022-09-10T07:33:50.587Z,1.40
2022-09-10T07:36:18.079Z,1.45
2022-09-10T07:38:44.927Z,1.77
2022-09-10T07:41:13.235Z,1.20
2022-09-10T07:43:41.683Z,1.60
2022-09-10T07:46:12.485Z,1.20
2022-09-10T07:48:41.447Z,1.30
2022-09-10T07:51:09.140Z,1.10
2022-09-10T07:53:35.987Z,1.60
2022-09-10T07:56:05.520Z,1.23
2022-09-10T07:58:33.622Z,1.38
2022-09-10T08:01:00.331Z,1.20
2022-09-10T08:03:27.821Z,1.10
2022-09-10T08:05:55.082Z,1.17
2022-09-10T08:08:22.427Z,1.50
2022-09-10T08:10:49.760Z,1.20
2022-09-10T08:13:16.519Z,1.40
2022-09-10T08:15:46.107Z,1.20
2022-09-10T08:18:13.680Z,1.10
2022-09-10T08:20:40.783Z,1.35
2022-09-10T08:23:07.946Z,1.25
2022-09-10T08:25:34.925Z,1.10
2022-09-10T08:28:01.403Z,1.15
2022-09-10T08:32:56.146Z,1.17
2022-09-10T08:35:22.653Z,1.10
2022-09-10T08:37:49.201Z,1.00
2022-09-10T08:40:16.434Z,1.10
2022-09-10T08:42:49.333Z,1.08
2022-09-10T08:45:31.505Z,1.10
2022-09-10T08:48:05.973Z,1.20
2022-09-10T08:50:46.625Z,1.00
2022-09-10T08:53:28.159Z,1.30
2022-09-10T08:55:58.708Z,1.17
2022-09-10T08:58:35.934Z,1.10
2022-09-10T09:01:05.083Z,1.08
2022-09-10T09:03:37.997Z,1.05
2022-09-10T09:06:09.060Z,1.15
2022-09-10T09:08:48.634Z,0.98
2022-09-10T09:11:21.026Z,1.02
2022-09-10T09:14:16.987Z,1.10
2022-09-10T09:16:51.015Z,1.10
2022-09-10T09:19:23.313Z,1.00
2022-09-10T09:21:53.181Z,1.10
2022-09-10T09:24:48.912Z,1.00
2022-09-10T09:27:20.197Z,0.98
2022-09-10T09:29:56.435Z,1.00
2022-09-10T09:32:24.017Z,0.98
2022-09-10T09:34:56.785Z,0.95
2022-09-10T09:37:27.187Z,1.30
2022-09-10T09:40:05.782Z,1.00
2022-09-10T09:42:45.592Z,1.20
2022-09-10T09:45:28.331Z,0.98
2022-09-10T09:47:55.887Z,1.00
2022-09-10T09:50:23.061Z,1.00
2022-09-10T09:52:55.216Z,1.30
2022-09-10T09:55:34.982Z,0.90
2022-09-10T09:58:33.741Z,0.90
2022-09-10T10:01:09.734Z,0.90
2022-09-10T10:03:53.465Z,0.90
2022-09-10T10:06:34.717Z,1.00
2022-09-10T10:09:06.832Z,1.10
2022-09-10T10:11:45.197Z,0.80
2022-09-10T10:14:20.151Z,0.80
2022-09-10T10:16:52.266Z,0.80
2022-09-10T10:19:36.648Z,1.10
2022-09-10T10:22:17.073Z,0.88
2022-09-10T10:24:45.210Z,0.90
2022-09-10T10:27:26.673Z,0.98
2022-09-10T10:30:22.190Z,1.00
2022-09-10T10:32:57.008Z,0.90
2022-09-10T10:35:42.899Z,1.50
2022-09-10T10:38:33.320Z,1.25
2022-09-10T10:41:24.650Z,0.90
2022-09-10T10:44:13.355Z,1.05
2022-09-10T10:46:45.914Z,1.00
2022-09-10T10:49:32.270Z,1.10
2022-09-10T10:52:10.571Z,0.82
2022-09-10T10:54:43.598Z,0.90
2022-09-10T10:57:53.463Z,0.90
2022-09-10T11:00:20.773Z,0.90
2022-09-10T11:03:16.059Z,1.13
2022-09-10T11:05:53.827Z,0.82
2022-09-10T11:08:35.044Z,0.93
2022-09-10T11:11:18.775Z,1.10
2022-09-10T11:13:57.807Z,1.02
2022-09-10T11:16:40.290Z,0.90
2022-09-10T11:19:35.787Z,0.80
2022-09-10T11:22:14.460Z,0.90
2022-09-10T11:24:50.247Z,1.00
2022-09-10T11:27:27.724Z,1.10
2022-09-10T11:30:10.097Z,1.00
2022-09-10T11:33:05.788Z,1.02
2022-09-10T11:35:48.251Z,0.98
2022-09-10T11:38:29.186Z,1.13
2022-09-10T11:41:04.380Z,1.20
2022-09-10T11:43:44.027Z,0.90
2022-09-10T11:46:15.283Z,1.00
2022-09-10T11:48:50.900Z,1.00
2022-09-10T11:51:24.325Z,1.00
2022-09-10T11:53:57.303Z,1.10
2022-09-10T11:57:01.060Z,1.00
2022-09-10T11:59:49.441Z,1.00
2022-09-10T12:02:40.988Z,1.33
2022-09-10T12:05:31.360Z,1.13
2022-09-10T12:07:57.714Z,1.10
2022-09-10T12:13:19.934Z,1.05
2022-09-10T12:16:02.583Z,1.45
2022-09-10T12:18:42.751Z,1.00
2022-09-10T12:21:20.227Z,1.20
2022-09-10T12:23:49.120Z,1.20
2022-09-10T12:26:21.071Z,1.02
2022-09-10T12:28:53.650Z,1.02
2022-09-10T12:31:21.621Z,0.90
2022-09-10T12:33:48.153Z,1.00
2022-09-10T12:36:35.760Z,1.30
2022-09-10T12:39:22.670Z,1.00
2022-09-10T12:41:49.823Z,1.10
2022-09-10T12:44:36.729Z,0.98
2022-09-10T12:47:15.845Z,1.00
2022-09-10T12:49:57.484Z,0.80
2022-09-10T12:52:52.728Z,1.10
2022-09-10T12:55:36.196Z,1.20
2022-09-10T12:58:30.354Z,1.10
2022-09-10T13:00:58.128Z,1.00
2022-09-10T13:03:27.931Z,1.10
2022-09-10T13:05:57.722Z,1.00
2022-09-10T13:08:28.043Z,1.05
2022-09-10T13:10:58.380Z,0.90
2022-09-10T13:13:39.979Z,1.00
2022-09-10T13:16:13.929Z,1.02
2022-09-10T13:18:42.077Z,1.17
2022-09-10T13:21:40.756Z,1.20
2022-09-10T13:24:31.784Z,1.27
2022-09-10T13:27:20.557Z,1.15
2022-09-10T13:29:56.345Z,1.40
2022-09-10T13:32:34.454Z,1.40
2022-09-10T13:35:21.974Z,1.05
2022-09-10T13:37:54.483Z,1.10
2022-09-10T13:41:07.016Z,1.13
2022-09-10T13:44:01.499Z,1.30
2022-09-10T13:46:35.267Z,1.20
2022-09-10T13:49:26.373Z,1.00
2022-09-10T13:51:56.609Z,0.98
2022-09-10T13:54:36.597Z,1.10
2022-09-10T13:57:20.236Z,1.13
2022-09-10T13:59:50.600Z,1.20
2022-09-10T14:02:19.798Z,1.60
2022-09-10T14:04:46.556Z,1.50
2022-09-10T14:07:17.050Z,1.70
2022-09-10T14:09:49.376Z,1.60
2022-09-10T14:12:19.284Z,1.20
2022-09-10T14:14:49.995Z,1.30
2022-09-10T14:17:23.224Z,1.50
2022-09-10T14:19:58.028Z,1.30
2022-09-10T14:22:26.469Z,1.15
2022-09-10T14:24:53.756Z,1.27
2022-09-10T14:27:26.101Z,1.30
2022-09-10T14:29:56.432Z,1.23
2022-09-10T14:32:22.838Z,1.20
2022-09-10T14:34:49.257Z,1.33
2022-09-10T14:37:44.989Z,1.20
2022-09-10T14:40:20.846Z,1.10
2022-09-10T14:42:52.509Z,1.50
2022-09-10T14:45:46.535Z,1.23
2022-09-10T14:48:42.352Z,1.10
2022-09-10T14:51:11.024Z,1.52
2022-09-10T14:53:37.939Z,1.27
2022-09-10T14:56:10.017Z,1.30
2022-09-10T14:58:36.442Z,1.30
2022-09-10T15:01:04.158Z,1.30
2022-09-10T15:03:30.557Z,1.30
2022-09-10T15:05:56.982Z,1.50
2022-09-10T15:08:23.418Z,1.35
2022-09-10T15:10:50.259Z,1.33
2022-09-10T15:13:18.945Z,1.55
2022-09-10T15:15:50.094Z,1.35
2022-09-10T15:18:17.338Z,1.40
2022-09-10T15:20:43.765Z,1.10
2022-09-10T15:23:11.595Z,1.20
2022-09-10T15:25:44.762Z,1.40
2022-09-10T15:28:11.166Z,1.30
2022-09-10T15:30:37.681Z,1.30
2022-09-10T15:33:05.863Z,1.35
2022-09-10T15:35:32.370Z,1.20
2022-09-10T15:38:01.441Z,1.38
2022-09-10T15:40:28.107Z,1.30
2022-09-10T15:42:54.736Z,1.40
2022-09-10T19:45:49.431Z,1.33
2022-09-10T19:48:16.023Z,1.40
2022-09-10T19:50:45.256Z,1.60
2022-09-10T19:53:12.318Z,1.60
2022-09-10T19:55:41.944Z,1.55
2022-09-10T19:58:13.152Z,1.70
2022-09-10T20:00:46.922Z,1.63
2022-09-10T20:03:14.555Z,1.58
2022-09-10T20:05:44.579Z,1.70
2022-09-10T20:08:11.100Z,1.80
2022-09-10T20:10:39.133Z,2.10
2022-09-10T20:13:06.137Z,1.88
2022-09-10T20:15:32.853Z,1.90
2022-09-10T20:18:00.967Z,1.80
2022-09-10T20:20:30.320Z,1.60
2022-09-10T20:23:01.382Z,2.00
2022-09-10T20:25:31.693Z,1.92
2022-09-10T20:27:58.641Z,1.90
2022-09-10T20:30:26.024Z,2.10
2022-09-10T20:32:52.624Z,1.65
2022-09-10T20:35:19.125Z,1.73
2022-09-10T20:40:18.340Z,1.55
2022-09-10T20:45:11.417Z,1.88
2022-09-10T20:47:43.131Z,1.98
2022-09-10T20:50:13.744Z,1.75
2022-09-10T20:52:41.928Z,1.88
2022-09-10T20:55:10.105Z,1.80
2022-09-10T20:57:36.551Z,1.88
2022-09-10T21:02:29.719Z,1.70
2022-09-10T21:04:56.602Z,1.70
2022-09-10T21:07:25.828Z,2.25
2022-09-10T21:09:52.532Z,1.77
2022-09-10T21:12:19.099Z,2.03
2022-09-10T21:14:48.548Z,1.90
2022-09-10T21:17:17.780Z,1.88
2022-09-10T21:19:44.308Z,2.08
2022-09-10T21:22:10.989Z,1.70
2022-09-10T21:24:39.682Z,2.05
2022-09-10T21:27:06.436Z,2.00
2022-09-10T21:29:36.332Z,1.65
2022-09-10T21:32:06.140Z,2.15
2022-09-10T21:34:37.556Z,2.40
2022-09-10T21:37:04.201Z,1.95
2022-09-10T21:39:30.662Z,2.58
2022-09-10T21:44:26.933Z,1.92
2022-09-10T21:46:53.418Z,2.15
2022-09-10T21:49:23.033Z,2.40
2022-09-10T21:51:52.834Z,2.75
2022-09-10T21:54:28.297Z,3.08
2022-09-10T21:56:56.008Z,3.72
2022-09-10T21:59:27.772Z,3.40
2022-09-10T22:01:54.570Z,3.10
2022-09-10T22:04:23.128Z,3.58
2022-09-10T22:06:50.672Z,3.42
2022-09-10T22:09:19.695Z,3.05
2022-09-10T22:11:50.302Z,2.97
2022-09-10T22:14:19.196Z,2.92
2022-09-10T22:16:45.950Z,3.03
2022-09-10T22:19:18.901Z,2.97
2022-09-10T22:21:46.318Z,2.60
2022-09-10T22:24:20.426Z,3.10
2022-09-10T22:26:47.493Z,2.40
2022-09-10T22:29:20.418Z,2.58
2022-09-10T22:31:47.866Z,2.35
2022-09-10T22:34:16.020Z,2.78
2022-09-10T22:36:44.913Z,2.40
2022-09-10T22:39:13.037Z,2.13
2022-09-10T22:41:40.443Z,2.40
2022-09-10T22:44:07.543Z,1.98
2022-09-10T22:46:35.661Z,2.30
2022-09-10T22:49:02.839Z,2.33
2022-09-10T22:51:34.514Z,2.10
2022-09-10T22:54:01.476Z,2.22
2022-09-10T22:56:28.576Z,2.15
2022-09-10T22:58:57.947Z,2.10
2022-09-10T23:01:27.758Z,1.98
2022-09-10T23:03:59.233Z,2.00
2022-09-10T23:06:28.352Z,1.92
2022-09-10T23:08:58.132Z,1.98
2022-09-10T23:11:27.899Z,2.13
2022-09-10T23:13:57.532Z,1.95
2022-09-10T23:16:36.573Z,1.92
2022-09-10T23:19:05.932Z,1.98
2022-09-10T23:21:34.406Z,1.80
2022-09-10T23:24:03.831Z,1.92
2022-09-10T23:26:30.532Z,2.00
2022-09-10T23:28:57.529Z,1.80
2022-09-10T23:31:26.249Z,2.38
2022-09-10T23:33:58.567Z,1.90
2022-09-10T23:36:26.867Z,1.90
2022-09-10T23:38:53.877Z,2.20
2022-09-10T23:41:20.594Z,1.90
2022-09-10T23:43:47.573Z,2.00
2022-09-10T23:46:14.486Z,1.80
2022-09-10T23:48:45.985Z,2.05
2022-09-10T23:51:14.400Z,1.90
2022-09-10T23:53:41.230Z,2.03
2022-09-10T23:56:08.652Z,1.90
2022-09-10T23:58:35.503Z,1.88
